createdAt,value
2018-08-16T00:02:01.639Z,22.47
2018-08-16T00:04:30.159Z,22.07
2018-08-16T00:06:58.699Z,22.93
2018-08-16T00:09:27.715Z,23.87
2018-08-16T00:11:56.254Z,22.77
2018-08-16T00:14:24.765Z,24.07
2018-08-16T00:16:53.439Z,23.60
2018-08-16T00:19:21.899Z,22.30
2018-08-16T00:21:50.381Z,23.93
2018-08-16T00:24:18.879Z,22.57
2018-08-16T00:26:47.734Z,23.07
2018-08-16T00:29:16.278Z,21.97
2018-08-16T00:31:44.774Z,23.33
2018-08-16T00:34:13.243Z,23.97
2018-08-16T00:36:41.686Z,22.90
2018-08-16T00:39:10.566Z,23.93
2018-08-16T00:41:39.527Z,24.47
2018-08-16T00:44:08.376Z,24.67
2018-08-16T00:46:36.903Z,23.40
2018-08-16T00:49:05.831Z,23.13
2018-08-16T00:51:34.311Z,21.77
2018-08-16T00:54:02.865Z,23.40
2018-08-16T00:56:31.678Z,26.40
2018-08-16T00:59:00.163Z,24.73
2018-08-16T01:01:28.627Z,23.30
2018-08-16T01:03:57.200Z,25.87
2018-08-16T01:06:25.998Z,24.27
2018-08-16T01:08:54.474Z,24.93
2018-08-16T01:11:22.930Z,25.47
2018-08-16T01:13:51.489Z,24.63
2018-08-16T01:16:19.952Z,24.27
2018-08-16T01:18:48.451Z,25.30
2018-08-16T01:21:17.016Z,25.03
2018-08-16T01:23:45.846Z,24.27
2018-08-16T01:26:14.312Z,26.13
2018-08-16T01:28:42.862Z,25.20
2018-08-16T01:31:11.351Z,24.43
2018-08-16T01:33:40.186Z,25.07
2018-08-16T01:36:09.021Z,25.13
2018-08-16T01:38:37.496Z,27.83
2018-08-16T01:41:05.955Z,25.17
2018-08-16T01:43:34.415Z,26.00
2018-08-16T01:46:03.224Z,24.13
2018-08-16T01:48:31.733Z,22.47
2018-08-16T01:51:00.187Z,24.40
2018-08-16T01:53:28.675Z,24.53
2018-08-16T01:56:10.411Z,24.50
2018-08-16T01:58:39.651Z,23.77
2018-08-16T02:01:08.098Z,23.23
2018-08-16T02:03:36.613Z,23.67
2018-08-16T02:06:05.155Z,25.07
2018-08-16T02:08:33.985Z,23.13
2018-08-16T02:11:02.527Z,23.57
2018-08-16T02:13:30.990Z,24.90
2018-08-16T02:15:59.479Z,24.80
2018-08-16T02:18:27.969Z,23.97
2018-08-16T02:20:56.431Z,23.37
2018-08-16T02:23:25.263Z,22.60
2018-08-16T02:25:53.707Z,26.07
2018-08-16T02:28:22.174Z,24.07
2018-08-16T02:30:50.693Z,25.27
2018-08-16T02:33:19.165Z,23.87
2018-08-16T02:35:47.631Z,23.23
2018-08-16T02:38:16.132Z,23.00
2018-08-16T02:40:44.641Z,24.83
2018-08-16T02:43:13.148Z,25.00
2018-08-16T02:45:41.682Z,24.40
2018-08-16T02:48:10.218Z,26.30
2018-08-16T02:50:38.668Z,29.17
2018-08-16T02:53:07.128Z,26.70
2018-08-16T02:55:35.654Z,27.07
2018-08-16T02:58:04.143Z,27.67
2018-08-16T03:00:32.600Z,27.93
2018-08-16T03:03:01.067Z,29.07
2018-08-16T03:05:29.605Z,28.90
2018-08-16T03:07:58.228Z,27.17
2018-08-16T03:10:26.752Z,26.70
2018-08-16T03:12:55.223Z,27.97
2018-08-16T03:15:23.694Z,28.27
2018-08-16T03:17:52.550Z,28.00
2018-08-16T03:20:21.067Z,26.87
2018-08-16T03:22:49.510Z,29.23
2018-08-16T03:25:17.979Z,31.43
2018-08-16T03:27:46.453Z,33.40
2018-08-16T03:30:14.931Z,27.73
2018-08-16T03:32:43.382Z,31.33
2018-08-16T03:35:11.949Z,27.17
2018-08-16T03:37:40.496Z,27.43
2018-08-16T03:40:09.096Z,27.20
2018-08-16T03:42:37.607Z,29.37
2018-08-16T03:45:07.299Z,29.53
2018-08-16T03:47:35.766Z,29.43
2018-08-16T03:50:04.857Z,32.20
2018-08-16T03:52:33.342Z,31.60
2018-08-16T03:55:01.844Z,31.77
2018-08-16T03:57:30.793Z,27.17
2018-08-16T03:59:59.332Z,29.57
2018-08-16T04:02:27.832Z,28.87
2018-08-16T04:04:56.306Z,28.60
2018-08-16T04:07:24.988Z,29.80
2018-08-16T04:09:53.463Z,32.23
2018-08-16T04:12:21.970Z,31.93
2018-08-16T04:14:50.512Z,25.43
2018-08-16T04:17:18.974Z,29.87
2018-08-16T04:19:47.458Z,31.07
2018-08-16T04:22:15.937Z,29.90
2018-08-16T04:24:44.568Z,30.97
2018-08-16T04:27:13.031Z,34.10
2018-08-16T04:29:41.495Z,35.67
2018-08-16T04:32:09.949Z,29.80
2018-08-16T04:34:38.401Z,32.50
2018-08-16T04:37:07.252Z,30.27
2018-08-16T04:39:35.717Z,29.53
2018-08-16T04:42:04.590Z,31.53
2018-08-16T04:44:34.019Z,35.60
2018-08-16T04:47:02.526Z,35.50
2018-08-16T04:49:30.973Z,29.30
2018-08-16T04:52:00.026Z,28.67
2018-08-16T04:54:28.494Z,31.80
2018-08-16T04:56:57.051Z,30.00
2018-08-16T04:59:26.030Z,30.97
2018-08-16T05:01:55.187Z,31.53
2018-08-16T05:04:23.713Z,29.87
2018-08-16T05:06:52.279Z,32.27
2018-08-16T05:09:20.790Z,30.67
2018-08-16T05:11:49.438Z,28.40
2018-08-16T05:14:17.907Z,31.00
2018-08-16T05:16:46.394Z,28.23
2018-08-16T05:19:14.879Z,33.20
2018-08-16T05:21:43.346Z,31.27
2018-08-16T05:24:17.795Z,31.40
2018-08-16T05:26:46.258Z,31.57
2018-08-16T05:29:14.703Z,26.97
2018-08-16T05:31:43.263Z,25.97
2018-08-16T05:34:11.869Z,27.97
2018-08-16T05:36:40.699Z,28.60
2018-08-16T05:39:10.613Z,26.73
2018-08-16T05:41:39.438Z,27.93
2018-08-16T05:44:08.144Z,25.87
2018-08-16T05:46:37.059Z,27.87
2018-08-16T05:49:05.834Z,27.73
2018-08-16T05:51:34.290Z,26.40
2018-08-16T05:54:03.483Z,29.03
2018-08-16T05:56:32.276Z,23.57
2018-08-16T05:59:00.758Z,21.37
2018-08-16T06:01:29.272Z,21.60
2018-08-16T06:03:58.135Z,21.40
2018-08-16T06:06:26.959Z,22.63
2018-08-16T06:08:55.578Z,20.10
2018-08-16T06:11:24.046Z,19.40
2018-08-16T06:13:52.682Z,17.30
2018-08-16T06:16:21.662Z,17.87
2018-08-16T06:18:50.492Z,17.43
2018-08-16T06:21:19.674Z,17.77
2018-08-16T06:23:48.233Z,16.33
2018-08-16T06:26:16.725Z,16.60
2018-08-16T06:28:45.320Z,15.87
2018-08-16T06:31:13.812Z,15.80
2018-08-16T06:33:42.556Z,15.13
2018-08-16T06:36:11.030Z,16.90
2018-08-16T06:38:39.939Z,16.00
2018-08-16T06:41:08.767Z,14.33
2018-08-16T06:43:37.295Z,14.67
2018-08-16T06:46:06.224Z,16.60
2018-08-16T06:48:34.869Z,19.87
2018-08-16T06:51:03.357Z,16.77
2018-08-16T06:53:32.428Z,14.97
2018-08-16T06:56:01.023Z,16.03
2018-08-16T06:58:29.552Z,13.70
2018-08-16T07:00:58.051Z,13.53
2018-08-16T07:03:26.507Z,18.60
2018-08-16T07:05:55.360Z,13.67
2018-08-16T07:08:24.223Z,12.73
2018-08-16T07:10:53.899Z,12.80
2018-08-16T07:13:22.440Z,13.63
2018-08-16T07:15:50.921Z,12.97
2018-08-16T07:18:19.386Z,12.17
2018-08-16T07:20:47.936Z,12.00
2018-08-16T07:23:16.791Z,12.03
2018-08-16T07:25:45.899Z,12.63
2018-08-16T07:28:14.411Z,12.80
2018-08-16T07:30:43.231Z,12.33
2018-08-16T07:33:13.019Z,12.43
2018-08-16T07:35:41.852Z,12.83
2018-08-16T07:39:35.119Z,13.13
2018-08-16T07:42:03.676Z,12.37
2018-08-16T07:44:32.172Z,17.03
2018-08-16T07:47:00.992Z,11.63
2018-08-16T07:49:29.459Z,13.50
2018-08-16T07:51:57.930Z,13.17
2018-08-16T07:54:26.626Z,9.53
2018-08-16T07:56:55.113Z,14.43
2018-08-16T07:59:23.766Z,12.57
2018-08-16T08:01:52.272Z,11.30
2018-08-16T08:04:20.747Z,12.23
2018-08-16T08:06:49.214Z,10.17
2018-08-16T08:09:17.766Z,13.03
2018-08-16T08:11:46.712Z,15.80
2018-08-16T08:14:15.197Z,11.60
2018-08-16T08:16:43.738Z,11.33
2018-08-16T08:19:12.421Z,11.03
2018-08-16T08:21:40.880Z,11.00
2018-08-16T08:24:09.943Z,13.30
2018-08-16T08:26:38.750Z,10.63
2018-08-16T08:29:07.614Z,13.77
2018-08-16T08:31:36.940Z,13.60
2018-08-16T08:34:06.060Z,15.50
2018-08-16T08:36:46.260Z,12.63
2018-08-16T08:39:15.404Z,13.37
2018-08-16T08:41:44.167Z,14.73
2018-08-16T08:44:28.683Z,14.43
2018-08-16T08:46:57.225Z,12.83
2018-08-16T08:50:28.046Z,11.87
2018-08-16T08:55:08.826Z,12.63
2018-08-16T08:57:48.400Z,13.17
2018-08-16T09:00:16.930Z,12.77
2018-08-16T09:02:45.408Z,14.03
2018-08-16T09:05:14.211Z,12.63
2018-08-16T09:07:43.359Z,11.63
2018-08-16T09:11:20.402Z,12.27
2018-08-16T09:14:02.339Z,11.63
2018-08-16T09:16:32.985Z,14.33
2018-08-16T09:19:02.135Z,12.67
2018-08-16T09:21:31.691Z,13.63
2018-08-16T09:24:00.277Z,11.70
2018-08-16T09:26:34.565Z,12.17
2018-08-16T09:29:06.955Z,12.53
2018-08-16T09:31:48.018Z,15.83
2018-08-16T09:34:19.615Z,12.20
2018-08-16T09:36:48.155Z,12.07
2018-08-16T09:39:17.735Z,13.07
2018-08-16T09:41:47.813Z,14.90
2018-08-16T09:44:17.560Z,13.30
2018-08-16T09:47:04.423Z,11.77
2018-08-16T09:49:34.737Z,12.90
2018-08-16T09:52:08.120Z,13.67
2018-08-16T09:54:37.074Z,13.93
2018-08-16T09:57:06.814Z,13.07
2018-08-16T09:59:35.292Z,11.53
2018-08-16T10:02:04.405Z,11.73
2018-08-16T10:04:33.362Z,13.90
2018-08-16T10:07:02.636Z,13.23
2018-08-16T10:09:31.926Z,15.77
2018-08-16T10:12:01.683Z,16.17
2018-08-16T10:14:30.152Z,13.30
2018-08-16T10:16:58.686Z,12.47
2018-08-16T10:19:28.087Z,16.23
2018-08-16T10:21:56.589Z,11.27
2018-08-16T10:24:25.050Z,13.50
2018-08-16T10:26:53.535Z,11.50
2018-08-16T10:29:22.023Z,13.13
2018-08-16T10:31:51.034Z,12.37
2018-08-16T10:34:19.482Z,11.53
2018-08-16T10:36:47.942Z,10.77
2018-08-16T10:39:17.567Z,11.50
2018-08-16T10:41:46.431Z,13.43
2018-08-16T10:44:15.192Z,12.63
2018-08-16T10:46:43.763Z,13.23
2018-08-16T10:49:12.250Z,19.87
2018-08-16T10:51:40.779Z,11.40
2018-08-16T10:54:09.374Z,12.27
2018-08-16T10:56:37.844Z,12.60
2018-08-16T10:59:06.391Z,15.73
2018-08-16T11:01:35.527Z,10.77
2018-08-16T11:04:04.055Z,10.17
2018-08-16T11:06:32.876Z,11.67
2018-08-16T11:09:01.326Z,12.70
2018-08-16T11:11:29.808Z,13.30
2018-08-16T11:13:58.332Z,11.87
2018-08-16T11:16:26.763Z,12.57
2018-08-16T11:18:56.244Z,11.20
2018-08-16T11:21:24.778Z,10.90
2018-08-16T11:23:53.271Z,11.20
2018-08-16T11:26:21.736Z,12.67
2018-08-16T11:28:51.541Z,11.20
2018-08-16T11:31:20.642Z,10.50
2018-08-16T11:33:49.135Z,11.77
2018-08-16T11:36:17.640Z,11.83
2018-08-16T11:38:46.711Z,10.87
2018-08-16T11:41:16.132Z,12.07
2018-08-16T11:43:44.620Z,10.87
2018-08-16T11:46:13.781Z,15.40
2018-08-16T11:48:42.286Z,11.07
2018-08-16T11:51:11.095Z,22.47
2018-08-16T11:53:40.113Z,16.43
2018-08-16T11:56:09.014Z,10.90
2018-08-16T11:58:37.837Z,12.00
2018-08-16T12:01:06.539Z,13.67
2018-08-16T12:03:35.389Z,11.33
2018-08-16T12:06:03.920Z,11.40
2018-08-16T12:08:32.442Z,12.90
2018-08-16T12:11:00.923Z,11.27
2018-08-16T12:13:30.983Z,13.10
2018-08-16T12:15:59.476Z,9.50
2018-08-16T12:18:27.959Z,10.47
2018-08-16T12:20:56.479Z,12.83
2018-08-16T12:23:25.138Z,14.30
2018-08-16T12:25:54.049Z,11.47
2018-08-16T12:28:23.875Z,11.17
2018-08-16T12:30:52.344Z,11.63
2018-08-16T12:33:20.835Z,11.77
2018-08-16T12:35:50.001Z,10.60
2018-08-16T12:38:18.452Z,12.93
2018-08-16T12:40:50.108Z,11.77
2018-08-16T12:43:15.655Z,11.70
2018-08-16T12:45:44.168Z,14.17
2018-08-16T12:48:12.620Z,13.17
2018-08-16T12:50:41.103Z,15.87
2018-08-16T12:53:09.563Z,13.87
2018-08-16T12:55:38.067Z,12.57
2018-08-16T12:58:06.566Z,11.90
2018-08-16T13:00:35.050Z,14.27
2018-08-16T13:03:03.535Z,11.50
2018-08-16T13:05:33.813Z,12.00
2018-08-16T13:08:02.345Z,12.33
2018-08-16T13:10:31.421Z,13.03
2018-08-16T13:13:00.016Z,10.90
2018-08-16T13:15:28.920Z,10.70
2018-08-16T13:17:57.859Z,10.50
2018-08-16T13:20:26.560Z,10.50
2018-08-16T13:22:55.060Z,9.93
2018-08-16T13:25:23.571Z,10.90
2018-08-16T13:27:52.026Z,11.63
2018-08-16T13:30:20.855Z,10.37
2018-08-16T13:32:49.294Z,10.40
2018-08-16T13:35:17.824Z,13.07
2018-08-16T13:37:46.287Z,13.60
2018-08-16T13:40:14.759Z,11.40
2018-08-16T13:42:43.197Z,10.10
2018-08-16T13:45:11.663Z,12.27
2018-08-16T13:47:40.108Z,11.23
2018-08-16T13:50:08.587Z,9.97
2018-08-16T13:52:37.019Z,9.80
2018-08-16T13:55:05.555Z,10.07
2018-08-16T13:57:34.116Z,9.60
2018-08-16T14:00:02.583Z,10.97
2018-08-16T14:02:31.047Z,11.10
2018-08-16T14:04:59.504Z,10.53
2018-08-16T14:07:27.979Z,12.07
2018-08-16T14:09:56.875Z,11.53
2018-08-16T14:12:25.599Z,12.93
2018-08-16T14:14:54.043Z,11.13
2018-08-16T14:17:22.575Z,12.20
2018-08-16T14:19:51.423Z,13.87
2018-08-16T14:22:19.899Z,12.20
2018-08-16T14:24:48.365Z,13.40
2018-08-16T14:27:16.866Z,12.90
2018-08-16T14:29:45.343Z,12.43
2018-08-16T14:32:13.897Z,12.43
2018-08-16T14:34:44.188Z,12.57
2018-08-16T14:37:12.721Z,11.77
2018-08-16T14:39:41.255Z,13.20
2018-08-16T14:42:09.751Z,14.47
2018-08-16T14:44:38.215Z,15.80
2018-08-16T14:47:07.255Z,13.70
2018-08-16T14:49:35.854Z,15.73
2018-08-16T14:52:04.686Z,12.83
2018-08-16T14:54:33.175Z,13.07
2018-08-16T14:57:01.796Z,14.73
2018-08-16T14:59:30.308Z,13.13
2018-08-16T15:01:58.807Z,12.00
2018-08-16T15:04:27.279Z,12.77
2018-08-16T15:06:55.749Z,10.97
2018-08-16T15:09:25.099Z,14.97
2018-08-16T15:11:53.575Z,13.77
2018-08-16T15:14:22.043Z,14.80
2018-08-16T15:16:50.591Z,14.20
2018-08-16T15:19:19.078Z,14.60
2018-08-16T15:21:47.587Z,17.67
2018-08-16T15:24:18.334Z,15.53
2018-08-16T15:26:47.339Z,14.33
2018-08-16T15:29:16.072Z,14.17
2018-08-16T15:31:44.983Z,16.03
2018-08-16T15:34:13.784Z,15.13
2018-08-16T15:36:42.426Z,14.13
2018-08-16T15:39:41.395Z,14.33
2018-08-16T15:42:10.398Z,14.90
2018-08-16T15:44:38.829Z,14.23
2018-08-16T15:47:07.335Z,15.53
2018-08-16T15:49:35.803Z,15.63
2018-08-16T15:52:04.341Z,15.50
2018-08-16T15:54:33.139Z,17.57
2018-08-16T15:57:01.608Z,14.20
2018-08-16T15:59:30.410Z,13.40
2018-08-16T16:01:58.891Z,12.93
2018-08-16T16:04:27.316Z,12.83
2018-08-16T16:06:55.834Z,14.07
2018-08-16T16:09:24.258Z,13.87
2018-08-16T16:11:53.092Z,13.00
2018-08-16T16:14:21.514Z,15.33
2018-08-16T16:16:49.977Z,14.93
2018-08-16T16:19:18.438Z,14.10
2018-08-16T16:21:46.945Z,15.33
2018-08-16T16:24:15.417Z,14.63
2018-08-16T16:26:43.859Z,11.60
2018-08-16T16:29:12.687Z,15.13
2018-08-16T16:31:41.129Z,14.03
2018-08-16T16:34:09.674Z,13.67
2018-08-16T16:36:38.134Z,12.93
2018-08-16T16:39:09.422Z,11.70
2018-08-16T16:41:37.920Z,12.53
2018-08-16T16:44:06.775Z,13.93
2018-08-16T16:46:35.325Z,16.93
2018-08-16T16:49:03.911Z,13.13
2018-08-16T16:51:32.382Z,11.63
2018-08-16T16:54:00.872Z,12.77
2018-08-16T16:56:29.335Z,12.77
2018-08-16T16:58:57.871Z,15.33
2018-08-16T17:01:26.338Z,11.37
2018-08-16T17:03:54.851Z,11.37
2018-08-16T17:06:23.323Z,11.03
2018-08-16T17:08:51.799Z,13.00
2018-08-16T17:11:20.623Z,10.47
2018-08-16T17:13:49.104Z,11.20
2018-08-16T17:16:17.956Z,11.47
2018-08-16T17:18:46.675Z,10.97
2018-08-16T17:21:15.182Z,10.67
2018-08-16T17:23:43.758Z,10.63
2018-08-16T17:26:12.276Z,9.83
2018-08-16T17:28:41.247Z,12.53
2018-08-16T17:31:09.725Z,11.40
2018-08-16T17:33:38.203Z,10.40
2018-08-16T17:36:06.696Z,12.40
2018-08-16T17:38:35.178Z,13.70
2018-08-16T17:41:03.716Z,10.60
2018-08-16T17:43:32.348Z,10.57
2018-08-16T17:46:01.172Z,11.47
2018-08-16T17:48:29.624Z,9.20
2018-08-16T17:50:58.068Z,10.33
2018-08-16T17:53:26.546Z,10.60
2018-08-16T17:55:54.995Z,9.93
2018-08-16T17:58:23.463Z,10.77
2018-08-16T18:00:52.037Z,9.37
2018-08-16T18:03:20.654Z,9.80
2018-08-16T18:05:49.851Z,9.47
2018-08-16T18:08:18.345Z,11.00
2018-08-16T18:10:46.816Z,10.43
2018-08-16T18:13:15.295Z,9.43
2018-08-16T18:15:43.738Z,9.57
2018-08-16T18:18:12.211Z,10.77
2018-08-16T18:20:40.662Z,11.03
2018-08-16T18:23:09.149Z,11.90
2018-08-16T18:25:37.604Z,10.57
2018-08-16T18:28:06.042Z,10.63
2018-08-16T18:30:34.503Z,10.00
2018-08-16T18:33:02.967Z,11.33
2018-08-16T18:35:31.674Z,16.80
2018-08-16T18:38:00.147Z,12.53
2018-08-16T18:40:28.608Z,12.20
2018-08-16T18:42:57.117Z,12.13
2018-08-16T18:45:25.626Z,12.80
2018-08-16T18:47:54.072Z,15.83
2018-08-16T18:50:22.590Z,12.37
2018-08-16T18:52:51.430Z,14.70
2018-08-16T18:55:19.942Z,12.40
2018-08-16T18:57:48.464Z,13.33
2018-08-16T19:00:17.010Z,12.90
2018-08-16T19:02:45.508Z,15.10
2018-08-16T19:05:14.021Z,13.73
2018-08-16T19:07:42.554Z,13.73
2018-08-16T19:10:18.016Z,12.33
2018-08-16T19:12:46.812Z,14.60
2018-08-16T19:15:15.338Z,12.40
2018-08-16T19:17:44.220Z,12.70
2018-08-16T19:20:12.746Z,12.10
2018-08-16T19:22:41.559Z,12.17
2018-08-16T19:25:10.127Z,13.57
2018-08-16T19:27:38.580Z,12.80
2018-08-16T19:30:07.422Z,12.00
2018-08-16T19:32:36.355Z,14.47
2018-08-16T19:35:05.387Z,13.13
2018-08-16T19:37:33.904Z,11.77
2018-08-16T19:40:02.402Z,20.80
2018-08-16T19:42:31.184Z,12.30
2018-08-16T19:44:59.670Z,12.17
2018-08-16T19:47:28.114Z,18.50
2018-08-16T19:49:57.242Z,12.10
2018-08-16T19:52:26.047Z,12.27
2018-08-16T19:54:54.521Z,11.67
2018-08-16T19:57:22.999Z,12.00
2018-08-16T19:59:51.848Z,12.67
2018-08-16T20:02:20.642Z,12.67
2018-08-16T20:04:49.232Z,11.80
2018-08-16T20:07:17.789Z,11.83
2018-08-16T20:09:46.270Z,13.57
2018-08-16T20:12:14.822Z,12.87
2018-08-16T20:14:43.322Z,11.57
2018-08-16T20:17:11.959Z,12.77
2018-08-16T20:19:40.483Z,13.37
2018-08-16T20:22:16.053Z,11.23
2018-08-16T20:24:44.663Z,11.40
2018-08-16T20:27:13.942Z,12.83
2018-08-16T20:29:42.827Z,12.83
2018-08-16T20:32:11.316Z,16.67
2018-08-16T20:34:40.170Z,16.03
2018-08-16T20:37:08.911Z,15.80
2018-08-16T20:39:37.600Z,15.20
2018-08-16T20:42:06.394Z,15.17
2018-08-16T20:44:34.942Z,14.77
2018-08-16T20:47:03.526Z,14.43
2018-08-16T20:49:32.974Z,14.87
2018-08-16T20:52:01.484Z,13.90
2018-08-16T20:54:29.981Z,13.90
2018-08-16T20:56:58.471Z,13.80
2018-08-16T20:59:26.987Z,14.43
2018-08-16T21:01:55.479Z,15.77
2018-08-16T21:04:23.982Z,15.03
2018-08-16T21:06:52.619Z,14.50
2018-08-16T21:09:21.081Z,14.37
2018-08-16T21:11:49.591Z,14.67
2018-08-16T21:14:18.096Z,14.23
2018-08-16T21:16:46.575Z,14.67
2018-08-16T21:19:15.014Z,15.20
2018-08-16T21:21:43.556Z,15.83
2018-08-16T21:24:12.223Z,20.53
2018-08-16T21:26:40.742Z,14.67
2018-08-16T21:29:09.179Z,14.33
2018-08-16T21:31:37.991Z,14.77
2018-08-16T21:34:09.752Z,13.83
2018-08-16T21:36:38.675Z,14.37
2018-08-16T21:39:08.803Z,13.57
2018-08-16T21:41:37.397Z,14.77
2018-08-16T21:44:05.912Z,15.00
2018-08-16T21:46:34.376Z,14.23
2018-08-16T21:49:02.846Z,15.63
2018-08-16T21:51:31.326Z,13.73
2018-08-16T21:53:59.780Z,15.77
2018-08-16T21:56:28.242Z,15.03
2018-08-16T21:58:56.949Z,14.33
2018-08-16T22:01:25.680Z,14.43
2018-08-16T22:03:54.491Z,14.43
2018-08-16T22:06:34.141Z,14.70
2018-08-16T22:09:02.705Z,14.37
2018-08-16T22:11:31.160Z,14.13
2018-08-16T22:13:59.607Z,13.97
2018-08-16T22:16:28.334Z,17.00
2018-08-16T22:18:56.842Z,13.50
2018-08-16T22:21:25.302Z,15.40
2018-08-16T22:23:53.746Z,14.90
2018-08-16T22:26:22.243Z,13.33
2018-08-16T22:28:50.689Z,15.67
2018-08-16T22:31:19.911Z,14.27
2018-08-16T22:33:48.540Z,14.30
2018-08-16T22:36:17.087Z,14.70
2018-08-16T22:38:45.536Z,14.90
2018-08-16T22:41:14.024Z,15.23
2018-08-16T22:43:42.484Z,14.80
2018-08-16T22:46:10.932Z,15.20
2018-08-16T22:48:39.482Z,14.97
2018-08-16T22:51:07.973Z,15.63
2018-08-16T22:53:36.444Z,15.67
2018-08-16T22:56:05.558Z,16.03
2018-08-16T22:58:34.418Z,16.37
2018-08-16T23:01:02.999Z,15.83
2018-08-16T23:03:31.615Z,17.40
2018-08-16T23:06:00.076Z,17.73
2018-08-16T23:08:28.913Z,16.90
2018-08-16T23:10:57.396Z,17.17
2018-08-16T23:13:25.947Z,16.70
2018-08-16T23:15:54.419Z,17.30
2018-08-16T23:18:22.912Z,17.97
2018-08-16T23:20:51.422Z,17.63
2018-08-16T23:23:19.947Z,20.43
2018-08-16T23:25:48.436Z,17.43
2018-08-16T23:28:16.923Z,18.37
2018-08-16T23:30:45.405Z,17.53
2018-08-16T23:33:13.902Z,19.00
2018-08-16T23:35:42.408Z,18.10
2018-08-16T23:38:10.887Z,18.17
2018-08-16T23:40:39.361Z,18.33
2018-08-16T23:43:08.204Z,17.97
2018-08-16T23:45:36.819Z,18.47
2018-08-16T23:48:16.418Z,18.07
2018-08-16T23:50:44.904Z,17.87
2018-08-16T23:53:13.812Z,17.80
2018-08-16T23:55:43.266Z,17.87
2018-08-16T23:58:11.807Z,17.03
